Wastedo, Minnesota
Current Conditions -  °F | °C
As of 5:33 PM on Thursday 18 Dec 2014 (Local Time) from KSYN Reporting Station
Overcast Overcast  
Wind Chill: 22°   Ceiling: 1700
Heat Index: 22°   Visibility: 10mi
Dew Point: 16°   Wind: 0mph
Humidity: 76%   Direction: NA
Pressure: 30.25"   Gusts: NA
Location:  44.4763°N, 92.8054°W
Report Text: KSYN 182333Z AUTO 00000KT 10SM OVC017 M05/M09 A3025 RMK AO2 T10531090
Loading
Personal Weather Stations






























Interactive Weather Map New forecast layout! Learn more

10-Day Weather Forecast

Advertisements
Track Severe Weather on mobile